createdAt,value
2023-03-05T00:26:50.921Z,506.00
2023-03-05T00:27:50.780Z,503.00
2023-03-05T00:28:50.648Z,505.00
2023-03-05T00:29:50.517Z,506.00
2023-03-05T00:30:50.431Z,508.00
2023-03-05T00:31:50.256Z,508.00
2023-03-05T00:32:50.113Z,507.00
2023-03-05T00:33:49.995Z,504.00
2023-03-05T00:34:49.838Z,504.00
2023-03-05T00:35:49.728Z,506.00
2023-03-05T00:36:49.638Z,509.00
2023-03-05T00:37:50.307Z,505.00
2023-03-05T00:38:49.313Z,506.00
2023-03-05T00:39:49.179Z,503.00
2023-03-05T00:40:49.041Z,509.00
2023-03-05T00:41:48.905Z,505.00
2023-03-05T00:42:48.776Z,505.00
2023-03-05T00:43:48.648Z,504.00
2023-03-05T00:44:48.506Z,502.00
2023-03-05T00:45:49.306Z,504.00
2023-03-05T00:46:48.353Z,505.00
2023-03-05T00:47:48.114Z,506.00
2023-03-05T00:48:47.992Z,505.00
2023-03-05T00:49:47.841Z,505.00
2023-03-05T01:40:41.169Z,506.00
2023-03-05T01:42:40.827Z,511.00
2023-03-05T01:43:40.717Z,508.00
2023-03-05T01:44:40.591Z,508.00
2023-03-05T01:45:40.480Z,509.00
2023-03-05T01:46:40.352Z,505.00
2023-03-05T01:47:40.173Z,511.00
2023-03-05T01:48:40.049Z,501.00
2023-03-05T01:49:39.937Z,502.00
2023-03-05T01:50:39.787Z,502.00
2023-03-05T01:51:39.658Z,502.00
2023-03-05T01:52:39.516Z,506.00
2023-03-05T01:53:39.405Z,500.00
2023-03-05T01:54:39.243Z,510.00
2023-03-05T01:55:39.117Z,509.00
2023-03-05T01:56:38.974Z,505.00
2023-03-05T01:57:38.837Z,507.00
2023-03-05T01:58:38.705Z,506.00
2023-03-05T01:59:38.577Z,506.00
2023-03-05T02:00:38.463Z,504.00
2023-03-05T02:01:38.407Z,506.00
2023-03-05T02:02:38.185Z,506.00
2023-03-05T02:03:38.176Z,502.00
2023-03-05T02:04:37.943Z,505.00
2023-03-05T02:05:37.788Z,503.00
2023-03-05T03:01:30.744Z,508.00
2023-03-05T03:02:30.582Z,505.00
2023-03-05T03:03:30.478Z,506.00
2023-03-05T03:04:30.311Z,503.00
2023-03-05T03:05:30.192Z,504.00
2023-03-05T03:06:30.823Z,506.00
2023-03-05T03:07:29.926Z,507.00
2023-03-05T03:08:29.808Z,507.00
2023-03-05T03:09:29.667Z,509.00
2023-03-05T03:10:29.542Z,508.00
2023-03-05T03:11:29.424Z,506.00
2023-03-05T03:12:29.287Z,505.00
2023-03-05T03:13:29.169Z,505.00
2023-03-05T03:14:29.048Z,505.00
2023-03-05T03:15:28.929Z,504.00
2023-03-05T03:16:28.802Z,506.00
2023-03-05T03:17:28.658Z,503.00
2023-03-05T03:18:28.547Z,507.00
2023-03-05T03:19:28.418Z,507.00
2023-03-05T03:20:28.312Z,506.00
2023-03-05T03:21:28.185Z,504.00
2023-03-05T03:22:28.060Z,505.00
2023-03-05T03:23:28.338Z,507.00
2023-03-05T03:24:27.797Z,505.00
2023-03-05T03:26:27.562Z,502.00
2023-03-05T03:27:27.480Z,504.00
2023-03-05T03:28:27.308Z,504.00
2023-03-05T03:29:27.184Z,502.00
2023-03-05T03:30:27.070Z,508.00
2023-03-05T03:31:26.949Z,508.00
2023-03-05T03:32:26.864Z,511.00
2023-03-05T03:33:26.696Z,503.00
2023-03-05T03:34:26.576Z,507.00
2023-03-05T03:35:26.452Z,502.00
2023-03-05T03:36:26.337Z,504.00
2023-03-05T03:37:26.217Z,507.00
2023-03-05T03:38:26.104Z,509.00
2023-03-05T03:39:25.962Z,506.00
2023-03-05T03:40:25.856Z,505.00
2023-03-05T03:41:25.762Z,505.00
2023-03-05T03:42:25.591Z,507.00
2023-03-05T03:43:25.464Z,506.00
2023-03-05T03:44:25.370Z,507.00
2023-03-05T03:45:25.342Z,507.00
2023-03-05T03:46:25.165Z,503.00
2023-03-05T03:47:24.982Z,508.00
2023-03-05T03:48:24.859Z,507.00
2023-03-05T03:49:25.350Z,503.00
2023-03-05T03:50:24.605Z,508.00
2023-03-05T03:51:24.486Z,510.00
2023-03-05T03:52:24.376Z,503.00
2023-03-05T03:53:24.247Z,507.00
2023-03-05T03:54:24.348Z,507.00
2023-03-05T03:55:24.008Z,505.00
2023-03-05T03:56:23.882Z,506.00
2023-03-05T03:57:23.759Z,502.00
2023-03-05T03:58:23.742Z,507.00
2023-03-05T03:59:23.529Z,506.00
2023-03-05T04:00:23.403Z,511.00
2023-03-05T04:01:23.292Z,508.00
2023-03-05T04:02:23.166Z,507.00
2023-03-05T04:03:23.040Z,508.00
2023-03-05T04:04:22.918Z,513.00
2023-03-05T04:05:22.782Z,508.00
2023-03-05T04:06:22.691Z,511.00
2023-03-05T04:07:22.605Z,506.00
2023-03-05T04:08:22.507Z,505.00
2023-03-05T04:09:22.377Z,505.00
2023-03-05T04:10:22.175Z,505.00
2023-03-05T04:11:22.066Z,507.00
2023-03-05T04:12:21.947Z,508.00
2023-03-05T04:13:21.856Z,506.00
2023-03-05T04:14:21.701Z,506.00
2023-03-05T04:15:21.576Z,505.00
2023-03-05T04:16:21.552Z,510.00
2023-03-05T04:17:21.320Z,503.00
2023-03-05T04:18:21.228Z,506.00
2023-03-05T04:19:21.107Z,510.00
2023-03-05T04:20:20.978Z,509.00
2023-03-05T04:21:20.852Z,514.00
2023-03-05T04:22:21.356Z,506.00
2023-03-05T04:23:20.609Z,511.00
2023-03-05T04:24:20.498Z,503.00
2023-03-05T04:25:20.373Z,511.00
2023-03-05T04:26:20.269Z,505.00
2023-03-05T04:27:20.159Z,508.00
2023-03-05T04:28:20.084Z,508.00
2023-03-05T04:29:19.923Z,504.00
2023-03-05T04:30:19.797Z,512.00
2023-03-05T04:31:19.863Z,511.00
2023-03-05T04:32:19.569Z,506.00
2023-03-05T04:33:19.440Z,507.00
2023-03-05T04:34:19.358Z,506.00
2023-03-05T04:47:17.751Z,513.00
2023-03-05T05:14:14.604Z,516.00
2023-03-05T05:15:14.514Z,513.00
2023-03-05T05:16:14.429Z,509.00
2023-03-05T05:17:14.339Z,515.00
2023-03-05T05:18:14.148Z,516.00
2023-03-05T05:19:14.121Z,514.00
2023-03-05T05:20:13.954Z,508.00
2023-03-05T05:21:13.847Z,514.00
2023-03-05T05:22:13.747Z,520.00
2023-03-05T05:23:13.608Z,514.00
2023-03-05T05:24:13.554Z,513.00
2023-03-05T05:25:13.388Z,516.00
2023-03-05T05:26:13.261Z,513.00
2023-03-05T05:27:13.147Z,511.00
2023-03-05T05:28:13.055Z,514.00
2023-03-05T05:29:12.923Z,513.00
2023-03-05T05:30:12.844Z,511.00
2023-03-05T05:31:12.788Z,514.00
2023-03-05T05:32:12.617Z,512.00
2023-03-05T05:33:12.494Z,512.00
2023-03-05T05:34:12.386Z,515.00
2023-03-05T05:35:12.287Z,512.00
2023-03-05T05:36:12.188Z,512.00
2023-03-05T05:37:12.077Z,513.00
2023-03-05T05:38:11.954Z,517.00
2023-03-05T05:39:11.918Z,513.00
2023-03-05T05:40:12.454Z,516.00
2023-03-05T05:41:11.654Z,513.00
2023-03-05T05:42:11.525Z,512.00
2023-03-05T05:43:11.428Z,514.00
2023-03-05T05:44:11.320Z,517.00
2023-03-05T05:45:11.298Z,509.00
2023-03-05T05:46:11.204Z,513.00
2023-03-05T05:47:10.984Z,521.00
2023-03-05T05:48:10.863Z,513.00
2023-03-05T05:49:10.752Z,514.00
2023-03-05T05:50:10.636Z,514.00
2023-03-05T05:51:10.524Z,518.00
2023-03-05T05:52:10.404Z,515.00
2023-03-05T05:53:10.297Z,516.00
2023-03-05T05:54:10.387Z,517.00
2023-03-05T05:55:10.091Z,517.00
2023-03-05T05:56:09.979Z,513.00
2023-03-05T05:57:09.862Z,514.00
2023-03-05T05:58:09.771Z,512.00
2023-03-05T05:59:09.632Z,511.00
2023-03-05T06:00:10.376Z,518.00
2023-03-05T06:01:09.438Z,513.00
2023-03-05T06:02:09.351Z,510.00
2023-03-05T06:03:09.327Z,514.00
2023-03-05T06:04:09.089Z,513.00
2023-03-05T06:05:08.978Z,515.00
2023-03-05T06:06:08.870Z,512.00
2023-03-05T06:07:09.373Z,518.00
2023-03-05T06:08:08.636Z,515.00
2023-03-05T06:09:08.524Z,514.00
2023-03-05T06:10:08.411Z,513.00
2023-03-05T06:11:08.318Z,516.00
2023-03-05T06:16:07.931Z,518.00
2023-03-05T07:47:58.091Z,522.00
2023-03-05T07:48:57.937Z,520.00
2023-03-05T07:49:57.858Z,515.00
2023-03-05T07:50:57.729Z,517.00
2023-03-05T09:14:49.072Z,517.00
2023-03-05T09:15:48.920Z,518.00
2023-03-05T09:16:48.794Z,516.00
2023-03-05T09:17:48.691Z,517.00
2023-03-05T09:18:48.605Z,514.00
2023-03-05T09:19:48.480Z,513.00
2023-03-05T09:20:48.367Z,518.00
2023-03-05T09:21:48.254Z,517.00
2023-03-05T09:22:48.142Z,516.00
2023-03-05T09:23:48.075Z,515.00
2023-03-05T09:24:47.917Z,515.00
2023-03-05T09:25:47.785Z,515.00
2023-03-05T10:36:40.050Z,523.00
2023-03-05T10:38:39.849Z,518.00
2023-03-05T10:42:39.426Z,521.00
2023-03-05T10:43:39.311Z,519.00
2023-03-05T10:44:39.220Z,516.00
2023-03-05T10:45:39.204Z,520.00
2023-03-05T10:46:39.069Z,519.00
2023-03-05T10:47:38.866Z,521.00
2023-03-05T10:48:38.773Z,519.00
2023-03-05T10:49:38.639Z,517.00
2023-03-05T10:50:38.558Z,516.00
2023-03-05T10:51:38.432Z,516.00
2023-03-05T10:52:38.961Z,519.00
2023-03-05T10:53:38.207Z,519.00
2023-03-05T10:54:38.090Z,521.00
2023-03-05T10:55:37.978Z,522.00
2023-03-05T10:56:37.840Z,521.00
2023-03-05T12:02:30.696Z,510.00
2023-03-05T12:03:30.655Z,510.00
2023-03-05T12:04:30.456Z,509.00
2023-03-05T12:05:30.361Z,513.00
2023-03-05T12:06:30.257Z,511.00
2023-03-05T12:07:30.151Z,512.00
2023-03-05T12:08:30.096Z,511.00
2023-03-05T12:09:29.997Z,513.00
2023-03-05T12:10:29.845Z,512.00
2023-03-05T12:11:29.754Z,509.00
2023-03-05T12:12:29.628Z,505.00
2023-03-05T12:13:29.539Z,512.00
2023-03-05T12:14:29.421Z,506.00
2023-03-05T12:15:29.417Z,511.00
2023-03-05T12:16:29.367Z,510.00
2023-03-05T12:17:29.141Z,509.00
2023-03-05T12:18:29.053Z,506.00
2023-03-05T12:19:28.937Z,507.00
2023-03-05T12:20:28.882Z,506.00
2023-03-05T12:21:28.748Z,512.00
2023-03-05T12:22:28.630Z,511.00
2023-03-05T12:23:28.550Z,510.00
2023-03-05T12:24:28.703Z,511.00
2023-03-05T12:25:28.356Z,505.00
2023-03-05T12:26:28.252Z,511.00
2023-03-05T12:27:28.155Z,509.00
2023-03-05T12:28:28.146Z,506.00
2023-03-05T12:29:27.957Z,506.00
2023-03-05T12:30:27.833Z,509.00
2023-03-05T12:31:27.797Z,506.00
2023-03-05T13:48:19.201Z,506.00
2023-03-05T13:49:19.119Z,510.00
2023-03-05T13:50:19.099Z,502.00
2023-03-05T13:51:19.089Z,503.00
2023-03-05T13:52:18.877Z,504.00
2023-03-05T13:53:19.015Z,504.00
2023-03-05T13:54:18.903Z,500.00
2023-03-05T13:55:19.246Z,501.00
2023-03-05T13:56:18.310Z,504.00
2023-03-05T13:57:19.006Z,506.00
2023-03-05T13:58:18.080Z,504.00
2023-03-05T13:59:17.976Z,504.00
2023-03-05T14:00:18.078Z,503.00
2023-03-05T14:01:18.232Z,510.00
2023-03-05T14:02:18.127Z,512.00
2023-03-05T14:03:17.568Z,507.00
2023-03-05T14:04:18.134Z,504.00
2023-03-05T14:05:17.716Z,514.00
2023-03-05T14:06:17.239Z,506.00
2023-03-05T14:07:17.125Z,505.00
2023-03-05T14:08:17.014Z,505.00
2023-03-05T14:09:16.889Z,507.00
2023-03-05T14:10:16.911Z,505.00
2023-03-05T14:11:16.657Z,507.00
2023-03-05T14:12:16.620Z,504.00
2023-03-05T14:13:16.955Z,509.00
2023-03-05T14:14:16.701Z,510.00
2023-03-05T14:15:16.828Z,505.00
2023-03-05T14:16:16.139Z,500.00
2023-03-05T14:17:16.012Z,512.00
2023-03-05T14:18:15.896Z,506.00
2023-03-05T14:19:15.786Z,508.00
2023-03-05T14:20:15.739Z,508.00
2023-03-05T14:21:15.551Z,513.00
2023-03-05T14:22:15.439Z,511.00
2023-03-05T14:23:25.148Z,506.00
2023-03-05T14:24:17.020Z,506.00
2023-03-05T14:25:14.991Z,507.00
2023-03-05T14:26:14.839Z,506.00
2023-03-05T14:27:14.660Z,506.00
2023-03-05T14:28:14.488Z,507.00
2023-03-05T14:29:14.334Z,503.00
2023-03-05T14:30:14.151Z,507.00
2023-03-05T14:31:14.023Z,506.00
2023-03-05T14:32:13.848Z,507.00
2023-03-05T14:33:13.641Z,509.00
2023-03-05T14:34:13.519Z,505.00
2023-03-05T14:35:13.398Z,508.00
2023-03-05T14:36:13.296Z,506.00
2023-03-05T14:37:13.183Z,506.00
2023-03-05T14:38:14.021Z,508.00
2023-03-05T14:39:12.960Z,505.00
2023-03-05T14:40:12.882Z,512.00
2023-03-05T14:41:12.740Z,506.00
2023-03-05T14:42:12.656Z,503.00
2023-03-05T14:43:12.524Z,503.00
2023-03-05T14:44:12.488Z,507.00
2023-03-05T14:45:12.304Z,506.00
2023-03-05T14:46:13.195Z,508.00
2023-03-05T14:47:12.070Z,505.00
2023-03-05T14:48:11.971Z,508.00
2023-03-05T14:49:11.871Z,507.00
2023-03-05T14:50:11.756Z,507.00
2023-03-05T14:51:11.652Z,502.00
2023-03-05T14:52:11.548Z,502.00
2023-03-05T14:53:11.415Z,504.00
2023-03-05T14:54:11.310Z,502.00
2023-03-05T14:55:11.213Z,506.00
2023-03-05T14:57:10.994Z,509.00
2023-03-05T14:58:11.036Z,502.00
2023-03-05T14:59:10.784Z,503.00
2023-03-05T15:00:10.676Z,505.00
2023-03-05T15:01:10.652Z,504.00
2023-03-05T15:03:11.035Z,503.00
2023-03-05T15:04:10.258Z,508.00
2023-03-05T15:05:10.206Z,505.00
2023-03-05T15:06:10.035Z,505.00
2023-03-05T15:07:09.915Z,505.00
2023-03-05T15:20:08.447Z,508.00
2023-03-05T15:21:08.349Z,505.00
2023-03-05T15:22:08.230Z,506.00
2023-03-05T15:23:08.133Z,506.00
2023-03-05T15:24:10.138Z,511.00
2023-03-05T15:25:07.818Z,507.00
2023-03-05T16:11:00.158Z,510.00
2023-03-05T16:12:00.014Z,506.00
2023-03-05T16:12:59.959Z,507.00
2023-03-05T16:13:59.774Z,503.00
2023-03-05T16:14:59.657Z,508.00
2023-03-05T16:15:59.564Z,508.00
2023-03-05T16:16:59.420Z,501.00
2023-03-05T16:17:59.285Z,507.00
2023-03-05T16:18:59.176Z,506.00
2023-03-05T16:19:59.072Z,504.00
2023-03-05T16:20:58.954Z,508.00
2023-03-05T16:21:58.847Z,500.00
2023-03-05T16:22:58.737Z,508.00
2023-03-05T16:23:58.590Z,508.00
2023-03-05T16:24:58.470Z,506.00
2023-03-05T16:25:59.649Z,508.00
2023-03-05T16:26:58.247Z,503.00
2023-03-05T16:27:58.138Z,500.00
2023-03-05T16:28:58.075Z,500.00
2023-03-05T16:29:57.907Z,504.00
2023-03-05T16:30:58.065Z,505.00
2023-03-05T17:52:48.184Z,501.00
2023-03-05T17:53:48.052Z,511.00
2023-03-05T17:54:47.942Z,510.00
2023-03-05T17:55:47.826Z,507.00
2023-03-05T18:36:43.106Z,509.00
2023-03-05T18:37:42.993Z,509.00
2023-03-05T18:38:42.875Z,507.00
2023-03-05T18:40:42.640Z,509.00
2023-03-05T18:41:42.541Z,515.00
2023-03-05T18:42:42.416Z,510.00
2023-03-05T18:43:42.322Z,515.00
2023-03-05T18:44:42.226Z,512.00
2023-03-05T18:45:42.131Z,506.00
2023-03-05T18:46:41.978Z,510.00
2023-03-05T18:47:41.855Z,508.00
2023-03-05T18:48:41.740Z,505.00
2023-03-05T18:49:41.668Z,510.00
2023-03-05T18:50:41.506Z,511.00
2023-03-05T18:51:41.389Z,507.00
2023-03-05T18:52:41.273Z,510.00
2023-03-05T18:53:41.160Z,505.00
2023-03-05T18:54:41.071Z,506.00
2023-03-05T18:55:41.109Z,500.00
2023-03-05T18:56:40.801Z,511.00
2023-03-05T18:57:40.692Z,515.00
2023-03-05T18:58:40.594Z,508.00
2023-03-05T18:59:40.457Z,504.00
2023-03-05T19:00:40.353Z,513.00
2023-03-05T19:01:40.269Z,510.00
2023-03-05T19:02:40.126Z,505.00
2023-03-05T19:03:40.042Z,507.00
2023-03-05T19:04:39.920Z,506.00
2023-03-05T19:05:39.806Z,505.00
2023-03-05T19:06:39.650Z,510.00
2023-03-05T19:07:39.589Z,510.00
2023-03-05T19:08:39.440Z,513.00
2023-03-05T19:09:39.314Z,506.00
2023-03-05T19:10:40.148Z,504.00
2023-03-05T19:11:39.077Z,514.00
2023-03-05T19:12:38.986Z,512.00
2023-03-05T19:13:38.869Z,511.00
2023-03-05T19:14:38.739Z,506.00
2023-03-05T19:15:38.630Z,508.00
2023-03-05T19:16:38.522Z,503.00
2023-03-05T19:17:38.396Z,506.00
2023-03-05T19:18:38.282Z,501.00
2023-03-05T19:19:38.168Z,507.00
2023-03-05T19:20:38.044Z,510.00
2023-03-05T19:21:37.932Z,500.00
2023-03-05T19:22:37.816Z,507.00
2023-03-05T19:23:37.689Z,508.00
2023-03-05T19:24:37.577Z,509.00
2023-03-05T19:25:37.459Z,505.00
2023-03-05T19:26:37.342Z,510.00
2023-03-05T19:27:37.220Z,505.00
2023-03-05T19:28:37.111Z,508.00
2023-03-05T19:29:37.000Z,511.00
2023-03-05T19:30:36.889Z,516.00
2023-03-05T19:31:36.762Z,512.00
2023-03-05T19:32:36.708Z,506.00
2023-03-05T19:33:36.521Z,510.00
2023-03-05T19:34:36.418Z,513.00
2023-03-05T19:35:36.313Z,507.00
2023-03-05T19:36:37.115Z,505.00
2023-03-05T19:37:36.085Z,513.00
2023-03-05T19:38:35.952Z,515.00
2023-03-05T19:39:35.846Z,512.00
2023-03-05T19:40:35.720Z,508.00
2023-03-05T19:41:35.612Z,511.00
2023-03-05T19:42:35.506Z,516.00
2023-03-05T20:37:29.255Z,515.00
2023-03-05T20:38:29.153Z,504.00
2023-03-05T20:39:29.038Z,516.00
2023-03-05T20:40:28.915Z,509.00
2023-03-05T20:41:28.794Z,505.00
2023-03-05T20:42:28.702Z,508.00
2023-03-05T20:43:28.572Z,511.00
2023-03-05T20:44:28.486Z,506.00
2023-03-05T20:45:28.413Z,508.00
2023-03-05T20:46:28.275Z,507.00
2023-03-05T20:47:28.139Z,512.00
2023-03-05T20:48:28.065Z,516.00
2023-03-05T20:49:27.898Z,506.00
2023-03-05T20:50:27.761Z,513.00
2023-03-05T22:06:18.905Z,506.00
2023-03-05T22:07:18.809Z,512.00
2023-03-05T22:08:18.678Z,508.00
2023-03-05T22:09:18.569Z,509.00
2023-03-05T22:10:18.455Z,509.00
2023-03-05T22:11:18.336Z,512.00
2023-03-05T22:12:18.225Z,506.00
2023-03-05T22:13:18.131Z,512.00
2023-03-05T22:14:18.161Z,514.00
2023-03-05T22:15:17.893Z,511.00
2023-03-05T22:16:17.776Z,512.00
2023-03-05T23:09:11.633Z,509.00
2023-03-05T23:10:11.584Z,513.00
2023-03-05T23:11:11.414Z,512.00
2023-03-05T23:12:11.279Z,507.00
2023-03-05T23:13:11.163Z,508.00
2023-03-05T23:14:11.040Z,512.00
2023-03-05T23:15:10.929Z,511.00
2023-03-05T23:16:10.927Z,509.00
2023-03-05T23:17:10.695Z,504.00
2023-03-05T23:18:10.577Z,511.00
2023-03-05T23:19:10.474Z,512.00
2023-03-05T23:20:10.383Z,504.00
2023-03-05T23:21:10.231Z,503.00
2023-03-05T23:22:10.127Z,503.00
2023-03-05T23:23:09.996Z,512.00
2023-03-05T23:24:09.972Z,511.00
2023-03-05T23:25:09.769Z,508.00
2023-03-05T23:26:09.650Z,515.00
2023-03-05T23:27:09.538Z,515.00
2023-03-05T23:28:09.473Z,516.00
2023-03-05T23:29:09.311Z,509.00
2023-03-05T23:30:09.198Z,508.00
2023-03-05T23:31:09.139Z,516.00
2023-03-05T23:32:09.029Z,512.00
2023-03-05T23:33:08.858Z,512.00
2023-03-05T23:34:08.742Z,509.00
2023-03-05T23:35:08.640Z,513.00
2023-03-05T23:36:08.525Z,513.00
2023-03-05T23:37:08.679Z,514.00
2023-03-05T23:38:09.179Z,517.00
2023-03-05T23:39:08.175Z,513.00
2023-03-05T23:40:08.053Z,516.00
2023-03-05T23:41:08.022Z,510.00
2023-03-05T23:42:07.825Z,514.00
2023-03-05T23:43:07.722Z,512.00
